createdAt,value
2018-11-06T00:01:21.151Z,24.17
2018-11-06T00:04:29.274Z,23.60
2018-11-06T00:07:33.228Z,23.33
2018-11-06T00:10:37.133Z,22.77
2018-11-06T00:13:41.111Z,22.83
2018-11-06T00:16:45.094Z,22.30
2018-11-06T00:19:48.997Z,22.17
2018-11-06T00:22:52.989Z,23.47
2018-11-06T00:25:56.972Z,23.23
2018-11-06T00:29:01.202Z,21.67
2018-11-06T00:32:05.368Z,21.93
2018-11-06T00:35:10.970Z,21.53
2018-11-06T00:38:14.910Z,22.53
2018-11-06T00:41:18.878Z,22.53
2018-11-06T00:44:23.010Z,22.47
2018-11-06T00:47:26.960Z,22.83
2018-11-06T00:50:30.948Z,21.80
2018-11-06T00:53:34.930Z,21.67
2018-11-06T00:56:39.334Z,20.93
2018-11-06T00:59:43.332Z,21.47
2018-11-06T01:02:48.040Z,21.40
2018-11-06T01:05:52.042Z,21.17
2018-11-06T01:08:55.998Z,20.37
2018-11-06T01:12:00.847Z,21.80
2018-11-06T01:15:05.413Z,20.47
2018-11-06T01:18:09.393Z,17.83
2018-11-06T01:21:13.469Z,19.20
2018-11-06T01:24:17.431Z,20.63
2018-11-06T01:27:21.465Z,20.77
2018-11-06T01:30:25.388Z,18.80
2018-11-06T01:33:29.948Z,20.03
2018-11-06T01:36:33.861Z,20.50
2018-11-06T01:39:37.848Z,20.57
2018-11-06T01:42:43.310Z,18.03
2018-11-06T01:45:47.372Z,19.03
2018-11-06T01:48:51.458Z,20.40
2018-11-06T01:51:55.390Z,20.00
2018-11-06T01:54:59.486Z,16.67
2018-11-06T01:58:03.539Z,19.10
2018-11-06T02:01:07.643Z,14.97
2018-11-06T02:04:11.717Z,19.67
2018-11-06T02:07:15.758Z,17.20
2018-11-06T02:10:19.740Z,20.13
2018-11-06T02:13:23.855Z,16.30
2018-11-06T02:16:27.902Z,18.83
2018-11-06T02:19:33.189Z,20.67
2018-11-06T02:22:37.563Z,21.17
2018-11-06T02:25:41.536Z,20.00
2018-11-06T02:28:45.569Z,20.80
2018-11-06T02:31:49.634Z,19.37
2018-11-06T02:34:53.645Z,18.00
2018-11-06T02:37:57.561Z,19.83
2018-11-06T02:41:01.626Z,18.20
2018-11-06T02:44:05.770Z,19.13
2018-11-06T02:47:10.224Z,14.63
2018-11-06T02:50:15.214Z,16.13
2018-11-06T02:53:19.331Z,15.73
2018-11-06T02:56:23.338Z,15.27
2018-11-06T02:59:27.464Z,15.67
2018-11-06T03:02:31.830Z,15.17
2018-11-06T03:05:35.818Z,15.10
2018-11-06T03:08:40.007Z,16.47
2018-11-06T03:11:44.139Z,16.67
2018-11-06T03:14:48.273Z,17.23
2018-11-06T03:17:52.237Z,16.17
2018-11-06T03:20:56.211Z,16.30
2018-11-06T03:24:00.252Z,13.83
2018-11-06T03:27:04.332Z,13.87
2018-11-06T03:30:10.553Z,16.63
2018-11-06T03:33:14.634Z,14.70
2018-11-06T03:36:18.526Z,13.30
2018-11-06T03:39:22.558Z,15.43
2018-11-06T03:42:26.650Z,13.20
2018-11-06T03:45:30.693Z,12.07
2018-11-06T03:48:34.696Z,14.10
2018-11-06T03:51:38.794Z,14.97
2018-11-06T03:54:42.857Z,16.90
2018-11-06T03:57:46.750Z,16.43
2018-11-06T04:00:50.781Z,14.60
2018-11-06T04:03:55.008Z,17.00
2018-11-06T04:06:59.014Z,14.43
2018-11-06T04:10:02.986Z,15.70
2018-11-06T04:13:06.910Z,15.53
2018-11-06T04:16:10.887Z,16.57
2018-11-06T04:19:14.967Z,17.20
2018-11-06T04:22:18.880Z,17.07
2018-11-06T04:25:22.852Z,14.60
2018-11-06T04:28:26.815Z,14.93
2018-11-06T04:31:31.401Z,16.10
2018-11-06T04:34:35.416Z,13.77
2018-11-06T04:37:40.273Z,12.93
2018-11-06T04:40:44.146Z,14.13
2018-11-06T04:43:47.991Z,15.20
2018-11-06T04:46:51.888Z,16.37
2018-11-06T04:49:56.104Z,14.47
2018-11-06T04:53:00.025Z,16.13
2018-11-06T04:56:05.170Z,15.70
2018-11-06T04:59:09.063Z,14.10
2018-11-06T05:02:13.032Z,16.23
2018-11-06T05:05:16.727Z,16.20
2018-11-06T05:08:20.633Z,16.77
2018-11-06T05:11:24.627Z,13.07
2018-11-06T05:14:28.482Z,17.67
2018-11-06T05:17:32.697Z,14.37
2018-11-06T05:20:36.576Z,15.37
2018-11-06T05:23:40.388Z,14.43
2018-11-06T05:26:44.253Z,14.97
2018-11-06T05:29:48.516Z,14.80
2018-11-06T05:32:52.503Z,15.57
2018-11-06T05:35:56.412Z,15.00
2018-11-06T05:39:00.428Z,15.07
2018-11-06T05:42:04.260Z,15.07
2018-11-06T05:45:08.176Z,15.57
2018-11-06T05:48:12.013Z,15.00
2018-11-06T05:51:15.821Z,14.70
2018-11-06T05:54:19.671Z,15.57
2018-11-06T05:57:23.656Z,13.87
2018-11-06T06:00:27.698Z,15.27
2018-11-06T06:03:31.649Z,14.27
2018-11-06T06:06:35.487Z,18.37
2018-11-06T06:09:39.401Z,17.07
2018-11-06T06:12:43.295Z,15.07
2018-11-06T06:15:47.110Z,17.80
2018-11-06T06:18:51.027Z,16.33
2018-11-06T06:21:54.937Z,16.33
2018-11-06T06:24:58.778Z,18.63
2018-11-06T06:28:02.666Z,16.80
2018-11-06T06:31:06.586Z,16.80
2018-11-06T06:34:10.435Z,17.20
2018-11-06T06:37:14.179Z,17.10
2018-11-06T06:40:18.635Z,16.17
2018-11-06T06:43:22.575Z,16.63
2018-11-06T06:46:26.555Z,16.07
2018-11-06T06:49:30.364Z,15.97
2018-11-06T06:52:34.189Z,18.03
2018-11-06T06:55:38.089Z,16.33
2018-11-06T06:58:41.951Z,16.43
2018-11-06T07:01:45.794Z,16.50
2018-11-06T07:04:49.707Z,16.77
2018-11-06T07:07:53.652Z,15.40
2018-11-06T07:10:57.531Z,16.13
2018-11-06T07:14:01.438Z,16.37
2018-11-06T07:17:05.778Z,16.43
2018-11-06T07:20:12.394Z,17.70
2018-11-06T07:23:16.364Z,18.07
2018-11-06T07:26:20.286Z,15.80
2018-11-06T07:29:24.123Z,20.67
2018-11-06T07:32:28.083Z,18.60
2018-11-06T07:35:32.473Z,26.20
2018-11-06T07:38:36.139Z,24.70
2018-11-06T07:41:40.958Z,20.20
2018-11-06T07:44:44.971Z,25.37
2018-11-06T07:47:48.935Z,25.03
2018-11-06T07:50:52.802Z,26.50
2018-11-06T07:53:56.742Z,24.63
2018-11-06T07:57:00.634Z,25.97
2018-11-06T08:00:04.943Z,24.53
2018-11-06T08:03:08.722Z,26.37
2018-11-06T08:06:12.652Z,24.73
2018-11-06T08:09:16.486Z,24.50
2018-11-06T08:12:20.337Z,24.37
2018-11-06T08:15:24.207Z,25.33
2018-11-06T08:18:28.273Z,23.20
2018-11-06T08:21:32.133Z,24.83
2018-11-06T08:24:35.941Z,25.60
2018-11-06T08:27:40.957Z,25.33
2018-11-06T08:30:44.838Z,23.83
2018-11-06T08:33:48.522Z,23.40
2018-11-06T08:36:52.340Z,24.63
2018-11-06T08:39:56.345Z,24.30
2018-11-06T08:43:00.259Z,24.00
2018-11-06T08:46:04.194Z,24.17
2018-11-06T08:49:08.065Z,24.13
2018-11-06T08:52:12.079Z,23.33
2018-11-06T08:55:16.924Z,22.90
2018-11-06T08:58:20.855Z,23.63
2018-11-06T09:01:24.645Z,25.03
2018-11-06T09:04:28.565Z,23.43
2018-11-06T09:07:32.383Z,24.63
2018-11-06T09:10:36.266Z,23.27
2018-11-06T09:13:40.293Z,24.83
2018-11-06T09:16:44.281Z,24.37
2018-11-06T09:19:48.218Z,23.53
2018-11-06T09:22:52.133Z,23.57
2018-11-06T09:25:56.046Z,24.07
2018-11-06T09:29:00.069Z,23.93
2018-11-06T09:32:04.085Z,23.97
2018-11-06T09:35:08.990Z,23.93
2018-11-06T09:38:12.871Z,25.33
2018-11-06T09:41:16.752Z,24.47
2018-11-06T09:44:20.760Z,23.40
2018-11-06T09:47:24.662Z,24.00
2018-11-06T09:50:28.582Z,23.27
2018-11-06T09:53:32.485Z,23.63
2018-11-06T09:56:36.350Z,23.27
2018-11-06T09:59:40.214Z,25.17
2018-11-06T10:02:44.089Z,23.47
2018-11-06T10:05:48.086Z,22.90
2018-11-06T10:08:51.936Z,23.27
2018-11-06T10:11:55.800Z,23.40
2018-11-06T10:14:59.808Z,22.53
2018-11-06T10:18:03.672Z,22.37
2018-11-06T10:21:07.673Z,21.83
2018-11-06T10:24:11.543Z,21.77
2018-11-06T10:27:16.596Z,22.23
2018-11-06T10:30:21.207Z,22.47
2018-11-06T10:33:25.198Z,21.70
2018-11-06T10:36:29.141Z,22.47
2018-11-06T10:39:33.033Z,22.83
2018-11-06T10:42:37.046Z,22.23
2018-11-06T10:45:40.965Z,22.30
2018-11-06T10:48:44.863Z,22.17
2018-11-06T10:51:48.798Z,22.13
2018-11-06T10:54:53.206Z,22.33
2018-11-06T10:57:57.063Z,22.77
2018-11-06T11:01:05.129Z,22.07
2018-11-06T11:04:13.182Z,21.90
2018-11-06T11:07:16.996Z,22.13
2018-11-06T11:10:20.938Z,21.83
2018-11-06T11:13:24.911Z,19.30
2018-11-06T11:16:28.802Z,20.87
2018-11-06T11:19:32.644Z,21.90
2018-11-06T11:22:36.506Z,21.00
2018-11-06T11:25:40.450Z,21.20
2018-11-06T11:28:44.375Z,20.83
2018-11-06T11:31:48.257Z,20.80
2018-11-06T11:34:52.197Z,20.43
2018-11-06T11:37:56.388Z,21.10
2018-11-06T11:41:00.275Z,19.63
2018-11-06T11:44:04.208Z,20.53
2018-11-06T11:47:08.147Z,19.70
2018-11-06T11:50:13.753Z,19.67
2018-11-06T11:53:17.621Z,19.30
2018-11-06T11:56:21.504Z,19.33
2018-11-06T11:59:25.346Z,19.73
2018-11-06T12:02:29.367Z,18.90
2018-11-06T12:05:33.365Z,19.03
2018-11-06T12:08:37.370Z,19.77
2018-11-06T12:11:41.201Z,19.23
2018-11-06T12:14:45.203Z,19.27
2018-11-06T12:17:49.233Z,19.10
2018-11-06T12:20:53.049Z,20.27
2018-11-06T12:23:56.963Z,19.07
2018-11-06T12:27:00.766Z,19.67
2018-11-06T12:30:05.624Z,18.83
2018-11-06T12:33:09.506Z,19.30
2018-11-06T12:36:13.279Z,19.20
2018-11-06T12:39:17.206Z,19.87
2018-11-06T12:42:21.104Z,19.13
2018-11-06T12:45:24.936Z,19.23
2018-11-06T12:48:28.722Z,20.20
2018-11-06T12:51:32.562Z,19.10
2018-11-06T12:54:36.362Z,19.23
2018-11-06T12:57:40.307Z,20.37
2018-11-06T13:00:44.088Z,19.17
2018-11-06T13:03:48.009Z,18.40
2018-11-06T13:06:51.902Z,19.27
2018-11-06T13:09:55.793Z,19.83
2018-11-06T13:12:59.652Z,18.97
2018-11-06T13:16:04.574Z,19.40
2018-11-06T13:19:08.414Z,19.67
2018-11-06T13:22:12.416Z,20.27
2018-11-06T13:25:16.288Z,19.73
2018-11-06T13:28:20.129Z,19.73
2018-11-06T13:31:24.016Z,19.73
2018-11-06T13:34:27.960Z,20.10
2018-11-06T13:37:31.847Z,20.20
2018-11-06T13:40:35.763Z,19.80
2018-11-06T13:43:39.827Z,20.30
2018-11-06T13:46:43.540Z,20.47
2018-11-06T13:49:47.379Z,20.57
2018-11-06T13:52:51.235Z,20.13
2018-11-06T13:55:55.226Z,20.57
2018-11-06T13:58:59.152Z,20.50
2018-11-06T14:02:02.926Z,20.70
2018-11-06T14:05:06.805Z,21.43
2018-11-06T14:08:10.686Z,20.83
2018-11-06T14:11:14.502Z,20.90
2018-11-06T14:14:18.404Z,20.37
2018-11-06T14:17:22.212Z,20.47
2018-11-06T14:20:26.115Z,20.60
2018-11-06T14:23:30.048Z,20.13
2018-11-06T14:26:33.881Z,20.23
2018-11-06T14:29:37.836Z,20.70
2018-11-06T14:32:42.204Z,20.17
2018-11-06T14:35:46.148Z,19.63
2018-11-06T14:38:50.130Z,19.30
2018-11-06T14:41:53.975Z,19.93
2018-11-06T14:44:57.835Z,20.30
2018-11-06T14:48:01.826Z,19.03
2018-11-06T14:51:05.796Z,20.73
2018-11-06T14:54:09.598Z,19.27
2018-11-06T14:57:13.549Z,19.37
2018-11-06T15:00:18.947Z,19.27
2018-11-06T15:03:22.828Z,19.13
2018-11-06T15:06:26.806Z,18.87
2018-11-06T15:09:30.572Z,19.73
2018-11-06T15:12:34.475Z,19.37
2018-11-06T15:15:38.295Z,19.50
2018-11-06T15:18:42.282Z,19.30
2018-11-06T15:21:46.097Z,18.27
2018-11-06T15:24:49.968Z,20.33
2018-11-06T15:27:53.872Z,20.90
2018-11-06T15:30:57.966Z,20.67
2018-11-06T15:34:01.835Z,15.57
2018-11-06T15:37:06.324Z,19.13
2018-11-06T15:40:12.740Z,23.83
2018-11-06T15:43:16.621Z,40.97
2018-11-06T15:46:20.597Z,26.23
2018-11-06T15:49:24.513Z,31.87
2018-11-06T15:52:28.372Z,26.93
2018-11-06T15:55:32.276Z,23.53
2018-11-06T15:58:36.238Z,22.67
2018-11-06T16:01:40.170Z,11.60
2018-11-06T16:04:43.942Z,15.37
2018-11-06T16:07:48.150Z,15.33
2018-11-06T16:10:52.093Z,20.13
2018-11-06T16:13:56.021Z,18.20
2018-11-06T16:17:00.264Z,19.20
2018-11-06T16:20:04.145Z,19.67
2018-11-06T16:23:08.062Z,15.67
2018-11-06T16:26:11.949Z,17.17
2018-11-06T16:29:16.026Z,18.20
2018-11-06T16:32:19.827Z,15.40
2018-11-06T16:35:24.308Z,13.67
2018-11-06T16:38:28.325Z,14.37
2018-11-06T16:41:32.183Z,14.17
2018-11-06T16:44:36.070Z,21.67
2018-11-06T16:47:39.982Z,20.00
2018-11-06T16:50:43.771Z,20.43
2018-11-06T16:53:47.727Z,16.47
2018-11-06T16:56:51.383Z,11.30
2018-11-06T16:59:55.206Z,8.70
2018-11-06T17:02:59.060Z,10.97
2018-11-06T17:06:02.946Z,11.87
2018-11-06T17:09:09.538Z,12.07
2018-11-06T17:12:13.511Z,14.97
2018-11-06T17:15:21.678Z,15.37
2018-11-06T17:18:25.519Z,21.67
2018-11-06T17:21:29.463Z,29.97
2018-11-06T17:24:33.397Z,17.60
2018-11-06T17:27:37.649Z,17.37
2018-11-06T17:30:41.530Z,13.20
2018-11-06T17:33:45.447Z,11.13
2018-11-06T17:36:49.249Z,15.80
2018-11-06T17:39:53.161Z,8.57
2018-11-06T17:42:57.027Z,17.73
2018-11-06T17:46:01.003Z,18.80
2018-11-06T17:49:04.881Z,15.23
2018-11-06T17:52:08.914Z,18.10
2018-11-06T17:55:14.656Z,16.73
2018-11-06T17:58:18.417Z,14.83
2018-11-06T18:01:22.383Z,15.40
2018-11-06T18:04:25.935Z,10.83
2018-11-06T18:07:29.584Z,22.70
2018-11-06T18:10:33.558Z,14.77
2018-11-06T18:13:37.391Z,13.07
2018-11-06T18:16:41.363Z,18.00
2018-11-06T18:19:45.253Z,15.27
2018-11-06T18:22:49.136Z,13.93
2018-11-06T18:25:53.103Z,13.73
2018-11-06T18:28:56.883Z,14.23
2018-11-06T18:32:01.056Z,19.20
2018-11-06T18:35:05.980Z,17.87
2018-11-06T18:38:09.840Z,18.00
2018-11-06T18:41:13.768Z,9.73
2018-11-06T18:44:17.814Z,14.20
2018-11-06T18:47:21.734Z,17.03
2018-11-06T18:50:25.718Z,7.37
2018-11-06T18:53:29.719Z,6.07
2018-11-06T18:56:33.636Z,7.67
2018-11-06T18:59:37.486Z,8.30
2018-11-06T19:02:42.407Z,8.87
2018-11-06T19:05:46.312Z,11.17
2018-11-06T19:08:50.200Z,9.53
2018-11-06T19:11:54.137Z,8.80
2018-11-06T19:14:58.186Z,8.90
2018-11-06T19:18:02.159Z,14.37
2018-11-06T19:21:06.198Z,9.00
2018-11-06T19:24:10.170Z,12.37
2018-11-06T19:27:13.992Z,9.63
2018-11-06T19:30:19.295Z,14.47
2018-11-06T19:33:23.060Z,13.80
2018-11-06T19:36:26.992Z,9.37
2018-11-06T19:39:30.913Z,10.33
2018-11-06T19:42:34.857Z,13.17
2018-11-06T19:45:38.651Z,11.60
2018-11-06T19:48:42.512Z,16.80
2018-11-06T19:51:46.534Z,12.97
2018-11-06T19:54:50.437Z,15.07
2018-11-06T19:57:54.297Z,11.07
2018-11-06T20:00:58.328Z,10.30
2018-11-06T20:04:02.167Z,9.93
2018-11-06T20:07:06.203Z,9.70
2018-11-06T20:10:12.441Z,10.73
2018-11-06T20:13:16.390Z,8.00
2018-11-06T20:16:20.291Z,7.40
2018-11-06T20:19:24.205Z,8.50
2018-11-06T20:22:28.003Z,8.83
2018-11-06T20:25:31.822Z,8.70
2018-11-06T20:28:35.732Z,8.50
2018-11-06T20:31:39.647Z,9.47
2018-11-06T20:34:43.571Z,10.70
2018-11-06T20:37:47.662Z,9.10
2018-11-06T20:40:51.456Z,9.10
2018-11-06T20:43:55.353Z,10.10
2018-11-06T20:46:59.111Z,12.33
2018-11-06T20:50:03.227Z,10.53
2018-11-06T20:53:07.098Z,13.63
2018-11-06T20:56:11.158Z,10.97
2018-11-06T20:59:14.818Z,11.40
2018-11-06T21:02:18.696Z,11.37
2018-11-06T21:05:22.616Z,12.23
2018-11-06T21:08:26.480Z,10.40
2018-11-06T21:11:30.501Z,10.70
2018-11-06T21:14:34.322Z,11.07
2018-11-06T21:17:38.178Z,10.00
2018-11-06T21:20:42.045Z,10.63
2018-11-06T21:23:45.922Z,12.77
2018-11-06T21:26:49.898Z,13.17
2018-11-06T21:29:53.670Z,15.40
2018-11-06T21:32:57.561Z,12.60
2018-11-06T21:36:01.416Z,11.83
2018-11-06T21:39:08.083Z,11.43
2018-11-06T21:42:12.102Z,11.03
2018-11-06T21:45:16.910Z,13.93
2018-11-06T21:48:20.792Z,16.13
2018-11-06T21:51:24.690Z,18.27
2018-11-06T21:54:28.635Z,14.67
2018-11-06T21:57:32.647Z,16.80
2018-11-06T22:00:36.707Z,14.73
2018-11-06T22:03:40.640Z,14.13
2018-11-06T22:06:44.564Z,12.07
2018-11-06T22:09:48.430Z,11.90
2018-11-06T22:12:52.470Z,13.00
2018-11-06T22:15:56.317Z,13.10
2018-11-06T22:19:00.284Z,14.20
2018-11-06T22:22:04.273Z,13.67
2018-11-06T22:25:08.247Z,13.47
2018-11-06T22:28:12.328Z,13.20
2018-11-06T22:31:16.268Z,13.03
2018-11-06T22:34:20.283Z,12.57
2018-11-06T22:37:24.251Z,12.13
2018-11-06T22:40:28.126Z,13.67
2018-11-06T22:43:32.120Z,15.97
2018-11-06T22:46:36.564Z,15.93
2018-11-06T22:49:40.374Z,16.27
2018-11-06T22:52:44.901Z,14.87
2018-11-06T22:55:48.955Z,12.90
2018-11-06T22:58:52.920Z,12.50
2018-11-06T23:01:56.960Z,12.73
2018-11-06T23:05:00.931Z,12.10
2018-11-06T23:08:09.033Z,11.57
2018-11-06T23:11:12.982Z,12.40
2018-11-06T23:14:17.062Z,12.10
2018-11-06T23:17:20.901Z,12.03
2018-11-06T23:20:24.900Z,11.60
2018-11-06T23:23:28.863Z,12.60
2018-11-06T23:26:32.858Z,11.77
2018-11-06T23:29:36.768Z,11.63
2018-11-06T23:32:40.864Z,17.43
2018-11-06T23:35:44.896Z,17.93
2018-11-06T23:38:48.897Z,16.43
2018-11-06T23:41:52.858Z,14.77
2018-11-06T23:44:56.807Z,17.33
2018-11-06T23:48:00.768Z,17.17
2018-11-06T23:51:04.692Z,13.67
2018-11-06T23:54:08.728Z,12.40
2018-11-06T23:57:12.806Z,11.87
